Latest Weather Observations for Laverton

IDV60801

Issued at 1:02 pm EST Monday 6 July 2015 (issued every 30 minutes, with the page automatically refreshed every 10 minutes)

About weather observations | Map of weather stations | Latest weather observations for VIC | Other Formats
Station Details ID: 087031 Name: LAVERTON RAAF Lat: -37.86 Lon: 144.76 Height: 20.1 m
Data from the previous 72 hours. | See also: Recent months at Laverton
Date/Time
EST
Temp
°C
App
Temp
°C
Dew
Point
Rel
Hum
%
Delta-T
°C
Wind Press
QNH
hPa
Press
MSL
hPa
Rain
since 9 am
mm
Dir
 
Spd
km/h
Gust
km/h
Spd
kts
Gust
kts
06/01:00pm 11.4 6.7 5.3 66 2.8 NNE 19 30 10 16 1015.2 1015.2 0.0
06/12:30pm 11.1 6.3 5.4 68 2.6 N 20 32 11 17 1015.5 1015.5 0.0
06/12:00pm 10.6 5.4 5.4 70 2.4 N 22 33 12 18 1015.9 1015.9 0.0
06/11:30am 9.8 4.5 4.8 71 2.2 N 22 32 12 17 1016.1 1016.1 0.0
06/11:00am 9.4 4.4 4.8 73 2.1 N 20 35 11 19 1016.3 1016.3 0.0
06/10:30am 8.8 3.8 4.8 76 1.8 N 20 32 11 17 1016.5 1016.5 0.0
06/10:00am 8.3 3.0 5.2 81 1.4 NNE 22 32 12 17 1016.3 1016.3 0.0
06/09:30am 7.7 2.1 5.5 86 1.0 N 24 33 13 18 1016.1 1016.1 0.0
06/09:00am 7.2 2.3 5.3 88 0.8 NNE 20 30 11 16 1016.2 1016.2 4.0
06/08:30am 7.4 3.2 5.5 88 0.8 NNE 17 24 9 13 1016.3 1016.3 3.6
06/08:00am 7.2 2.9 5.3 88 0.8 N 17 24 9 13 1016.2 1016.2 3.4
06/07:30am 7.2 3.3 5.2 87 0.9 N 15 22 8 12 1016.0 1016.0 3.0
06/07:00am 7.4 2.5 5.0 85 1.1 NNE 20 32 11 17 1015.6 1015.6 2.6
06/06:30am 7.6 2.9 5.1 84 1.1 NNE 19 26 10 14 1015.6 1015.6 1.8
06/06:24am 7.6 2.8 4.9 83 1.2 NNE 19 24 10 13 1015.7 1015.7 1.4
06/06:05am 7.6 2.7 4.2 79 1.5 NNE 19 24 10 13 1015.6 1015.6 0.8
06/06:00am 7.9 3.3 3.9 76 1.7 NNE 17 22 9 12 1015.7 1015.7 0.4
06/05:30am 8.8 5.7 3.6 70 2.2 NE 9 13 5 7 1016.0 1016.0 0.0
06/05:00am 9.3 5.0 3.5 67 2.5 N 15 22 8 12 1015.7 1015.7 0.0
06/04:30am 8.7 4.8 3.5 70 2.2 NNE 13 17 7 9 1015.6 1015.6 0.0
06/04:00am 8.5 3.5 3.6 71 2.1 NNE 19 22 10 12 1015.7 1015.7 0.0
06/03:30am 8.5 3.8 3.1 69 2.3 NNE 17 22 9 12 1016.0 1016.0 0.0
06/03:00am 8.9 4.2 3.1 67 2.5 NNE 17 22 9 12 1016.2 1016.2 0.0
06/02:30am 9.1 4.4 3.1 66 2.6 NNE 17 22 9 12 1016.2 1016.2 0.0
06/02:00am 9.5 4.9 3.5 66 2.6 N 17 22 9 12 1016.4 1016.4 0.0
06/01:30am 9.4 5.1 3.2 65 2.7 NNE 15 19 8 10 1016.6 1016.6 0.0
06/01:00am 9.6 5.3 3.1 64 2.8 NNE 15 20 8 11 1016.8 1016.8 0.0
06/12:30am 9.5 5.6 3.3 65 2.7 NNE 13 20 7 11 1017.0 1017.0 0.0
06/12:00am 9.6 5.3 3.1 64 2.8 N 15 24 8 13 1017.1 1017.1 0.0
 
Date/Time
EST
Temp
°C
App
Temp
°C
Dew
Point
Rel
Hum
%
Delta-T
°C
Wind Press
QNH
hPa
Press
MSL
hPa
Rain
since 9 am
mm
Dir
 
Spd
km/h
Gust
km/h
Spd
kts
Gust
kts
05/11:30pm 9.7 5.4 3.2 64 2.8 N 15 26 8 14 1017.1 1017.1 0.0
05/11:00pm 9.7 5.0 3.2 64 2.8 N 17 26 9 14 1017.0 1017.0 0.0
05/10:30pm 10.0 4.9 3.3 63 2.9 N 19 28 10 15 1017.1 1017.1 0.0
05/10:00pm 9.6 5.3 3.4 65 2.7 NNE 15 20 8 11 1017.4 1017.4 0.0
05/09:30pm 9.7 5.0 3.4 65 2.7 NNE 17 24 9 13 1017.6 1017.6 0.0
05/09:00pm 9.6 5.4 3.6 66 2.6 NNE 15 22 8 12 1017.7 1017.7 0.0
05/08:30pm 9.7 5.4 3.4 65 2.7 NNE 15 20 8 11 1017.7 1017.7 0.0
05/08:00pm 10.0 6.1 3.5 64 2.8 N 13 19 7 10 1017.7 1017.7 0.0
05/07:30pm 10.0 6.2 3.7 65 2.8 N 13 19 7 10 1017.8 1017.8 0.0
05/07:00pm 9.9 6.8 3.6 65 2.7 N 9 13 5 7 1017.7 1017.7 0.0
05/06:30pm 10.8 7.4 3.8 62 3.1 N 11 17 6 9 1017.6 1017.6 0.0
05/06:00pm 11.7 7.5 4.0 59 3.4 N 15 24 8 13 1017.6 1017.6 0.0
05/05:30pm 12.4 7.4 4.4 58 3.6 NNW 20 28 11 15 1017.3 1017.3 0.0
05/05:00pm 13.3 7.8 4.2 54 4.1 NNW 22 32 12 17 1017.0 1017.0 0.0
05/04:30pm 14.1 9.1 4.4 52 4.5 N 20 30 11 16 1017.0 1017.0 0.0
05/04:00pm 13.8 9.4 4.7 54 4.2 N 17 22 9 12 1017.1 1017.1 0.0
05/03:30pm 14.5 10.1 5.0 53 4.4 N 17 26 9 14 1017.1 1017.1 0.0
05/03:00pm 15.1 10.7 5.0 51 4.7 NNW 17 24 9 13 1017.3 1017.3 0.0
05/02:30pm 15.3 10.9 4.9 50 4.9 N 17 24 9 13 1017.4 1017.4 0.0
05/02:00pm 14.8 10.1 5.1 52 4.6 NNW 19 24 10 13 1017.5 1017.5 0.0
05/01:30pm 15.0 9.3 5.0 51 4.7 NW 24 32 13 17 1017.7 1017.7 0.0
05/01:00pm 14.9 10.0 5.1 52 4.6 NNW 20 32 11 17 1017.9 1017.9 0.0
05/12:30pm 15.2 9.9 5.1 51 4.8 NNW 22 28 12 15 1018.2 1018.2 0.0
05/12:00pm 15.3 10.4 5.2 51 4.8 NNW 20 33 11 18 1018.6 1018.6 0.0
05/11:30am 14.7 11.0 6.3 57 4.0 N 15 22 8 12 1019.1 1019.1 0.0
05/11:00am 13.1 9.6 5.5 60 3.5 N 13 19 7 10 1019.5 1019.5 0.0
05/10:30am 11.9 8.4 5.3 64 3.0 NNE 13 17 7 9 1019.8 1019.8 0.0
05/10:00am 10.7 6.7 4.8 67 2.7 NNE 15 22 8 12 1020.0 1020.0 0.0
05/09:30am 9.3 5.2 4.3 71 2.2 NNE 15 22 8 12 1020.1 1020.1 0.0
05/09:00am 9.1 5.4 4.3 72 2.1 NE 13 17 7 9 1020.1 1020.1 1.8
05/08:30am 8.8 4.6 4.0 72 2.1 NNE 15 19 8 10 1020.1 1020.1 1.8
05/08:00am 8.4 4.2 4.0 74 1.9 NNE 15 19 8 10 1020.1 1020.1 1.8
05/07:30am 8.7 4.9 3.7 71 2.2 NNE 13 15 7 8 1020.0 1020.0 1.8
05/07:00am 9.0 4.5 4.0 71 2.2 N 17 20 9 11 1019.9 1019.9 1.8
05/06:30am 8.8 4.7 4.2 73 2.0 NNE 15 22 8 12 1019.8 1019.8 1.8
05/06:00am 8.8 4.7 4.4 74 1.9 NNE 15 20 8 11 1019.8 1019.8 1.8
05/05:30am 9.0 5.7 4.4 73 2.0 N 11 17 6 9 1019.8 1019.8 1.8
05/05:00am 9.2 5.5 4.4 72 2.1 N 13 19 7 10 1019.3 1019.3 1.8
05/04:30am 9.4 5.8 4.8 73 2.1 NNE 13 17 7 9 1019.4 1019.4 1.8
05/04:00am 9.2 5.5 4.6 73 2.0 NNE 13 17 7 9 1019.7 1019.7 1.8
05/03:30am 10.5 5.7 4.9 68 2.5 N 19 24 10 13 1020.0 1020.0 1.8
05/03:00am 10.5 5.2 4.9 68 2.5 N 22 28 12 15 1020.1 1020.1 1.8
05/02:30am 9.9 5.9 4.9 71 2.2 N 15 22 8 12 1020.2 1020.2 1.8
05/02:00am 10.0 6.0 5.0 71 2.2 NNE 15 19 8 10 1020.4 1020.4 1.8
05/01:30am 10.0 6.0 5.0 71 2.3 NNE 15 19 8 10 1020.5 1020.5 1.8
05/01:00am 9.9 6.3 5.1 72 2.2 NNE 13 19 7 10 1020.7 1020.7 1.8
05/12:30am 10.1 6.6 5.3 72 2.2 N 13 19 7 10 1020.8 1020.8 1.8
05/12:00am 10.1 6.6 5.5 73 2.1 N 13 17 7 9 1020.9 1020.9 1.8
 
Date/Time
EST
Temp
°C
App
Temp
°C
Dew
Point
Rel
Hum
%
Delta-T
°C
Wind Press
QNH
hPa
Press
MSL
hPa
Rain
since 9 am
mm
Dir
 
Spd
km/h
Gust
km/h
Spd
kts
Gust
kts
04/11:30pm 10.3 6.8 5.3 71 2.3 N 13 19 7 10 1021.1 1021.1 1.8
04/11:00pm 10.4 6.5 5.4 71 2.3 N 15 20 8 11 1021.2 1021.2 1.8
04/10:30pm 10.4 6.6 5.6 72 2.2 N 15 22 8 12 1021.3 1021.3 1.8
04/10:00pm 10.2 6.4 5.8 74 2.0 N 15 20 8 11 1021.4 1021.4 1.8
04/09:30pm 10.0 6.6 6.0 76 1.8 N 13 17 7 9 1021.5 1021.5 1.8
04/09:00pm 9.8 6.5 6.3 79 1.6 N 13 15 7 8 1021.6 1021.6 1.8
04/08:30pm 9.6 6.3 6.3 80 1.5 NNE 13 17 7 9 1021.7 1021.7 1.8
04/08:00pm 9.9 7.3 6.2 78 1.7 N 9 13 5 7 1021.8 1021.8 1.8
04/07:30pm 9.8 6.9 6.3 79 1.6 NNE 11 17 6 9 1021.7 1021.7 1.8
04/07:00pm 9.8 6.9 6.7 81 1.4 NNE 11 15 6 8 1021.6 1021.6 1.8
04/06:30pm 9.4 6.2 7.0 85 1.1 NNE 13 15 7 8 1021.6 1021.6 1.8
04/06:08pm 9.3 6.5 6.9 85 1.1 NNE 11 15 6 8 1021.4 1021.4 1.8
04/06:00pm 9.3 6.1 6.9 85 1.1 NNE 13 17 7 9 1021.4 1021.4 1.8
04/05:54pm 9.4 6.2 6.8 84 1.2 N 13 17 7 9 1021.3 1021.3 1.8
04/05:30pm 9.6 6.4 6.9 83 1.3 N 13 17 7 9 1021.2 1021.2 1.4
04/05:00pm 10.1 7.4 7.2 82 1.4 NNE 11 15 6 8 1021.2 1021.2 1.4
04/04:30pm 10.2 8.0 7.8 85 1.2 NNE 9 13 5 7 1021.2 1021.2 1.4
04/04:00pm 9.9 7.6 7.5 85 1.1 NNE 9 13 5 7 1021.4 1021.4 1.4
04/03:30pm 10.0 7.4 7.6 85 1.1 NNE 11 15 6 8 1021.3 1021.3 1.4
04/03:00pm 9.9 7.3 7.7 86 1.0 NNE 11 15 6 8 1021.1 1021.1 1.4
04/02:30pm 9.6 6.5 7.4 86 1.0 NNE 13 19 7 10 1021.0 1021.0 1.4
04/02:00pm 9.6 7.0 7.7 88 0.9 NE 11 15 6 8 1021.2 1021.2 1.4
04/01:30pm 9.5 6.9 7.9 90 0.8 NNE 11 15 6 8 1021.3 1021.3 1.4
04/01:00pm 9.4 6.5 8.0 91 0.7 NNE 13 15 7 8 1021.4 1021.4 1.4
04/12:30pm 9.2 6.2 7.8 91 0.7 NNE 13 17 7 9 1021.8 1021.8 1.4
04/12:00pm 9.3 7.1 7.9 91 0.7 NNE 9 13 5 7 1022.1 1022.1 1.4
04/11:30am 9.0 6.7 7.6 91 0.7 NNE 9 13 5 7 1022.4 1022.4 1.4
04/11:00am 9.0 6.3 7.5 90 0.7 NNE 11 13 6 7 1022.5 1022.5 1.4
04/10:30am 8.7 5.9 6.8 88 0.9 NNE 11 13 6 7 1022.5 1022.5 1.0
04/10:13am 8.6 5.7 6.6 87 0.9 NNE 11 13 6 7 1022.7 1022.7 1.0
04/10:00am 8.7 6.5 6.3 85 1.1 NNE 7 11 4 6 1022.7 1022.7 0.8
04/09:55am 8.9 7.0 6.5 85 1.1 N 6 7 3 4 1022.7 1022.7 0.8
04/09:30am 9.0 6.4 6.3 83 1.2 N 9 15 5 8 1022.4 1022.4 0.2
04/09:23am 8.8 6.2 6.1 83 1.2 N 9 15 5 8 1022.3 1022.3 0.2
04/09:00am 8.7 5.0 4.7 76 1.8 NNW 13 19 7 10 1022.3 1022.3 0.6
04/08:52am 9.1 5.3 3.9 70 2.3 NNW 13 19 7 10 1022.3 1022.3 0.4
04/08:30am 9.8 6.2 3.1 63 2.9 N 11 17 6 9 1022.3 1022.3 0.0
04/08:00am 9.4 5.3 2.5 62 2.9 N 13 17 7 9 1022.2 1022.2 0.0
04/07:30am 9.0 5.7 2.3 63 2.8 N 9 15 5 8 1022.1 1022.1 0.0
04/07:00am 8.8 4.3 2.2 63 2.7 NNW 15 20 8 11 1021.9 1021.9 0.0
04/06:30am 8.9 4.3 1.8 61 2.9 NNW 15 22 8 12 1022.0 1022.0 0.0
04/06:00am 8.8 3.5 1.9 62 2.9 NNW 19 26 10 14 1021.7 1021.7 0.0
04/05:30am 8.7 4.2 2.1 63 2.8 NNW 15 20 8 11 1021.9 1021.9 0.0
04/05:00am 8.2 4.1 2.0 65 2.6 NNW 13 19 7 10 1021.9 1021.9 0.0
04/04:30am 8.2 4.8 1.8 64 2.6 NNW 9 13 5 7 1022.1 1022.1 0.0
04/04:00am 8.1 4.7 1.7 64 2.6 N 9 13 5 7 1022.0 1022.0 0.0
04/03:30am 8.4 4.6 1.6 62 2.8 N 11 17 6 9 1022.1 1022.1 0.0
04/03:00am 8.7 4.1 1.6 61 2.9 NNW 15 20 8 11 1022.8 1022.8 0.0
04/02:30am 8.8 4.2 1.7 61 2.9 NNW 15 20 8 11 1023.0 1023.0 0.0
04/02:00am 8.5 4.3 1.6 62 2.8 NNW 13 17 7 9 1023.2 1023.2 0.0
04/01:30am 8.2 4.0 1.8 64 2.6 NNW 13 15 7 8 1023.4 1023.4 0.0
04/01:00am 8.0 4.2 2.0 66 2.5 NNW 11 15 6 8 1023.7 1023.7 0.0
04/12:30am 7.7 4.3 1.8 66 2.4 NNW 9 13 5 7 1024.1 1024.1 0.0
04/12:00am 7.8 4.4 1.6 65 2.5 NNW 9 13 5 7 1024.3 1024.3 0.0
 
Date/Time
EST
Temp
°C
App
Temp
°C
Dew
Point
Rel
Hum
%
Delta-T
°C
Wind Press
QNH
hPa
Press
MSL
hPa
Rain
since 9 am
mm
Dir
 
Spd
km/h
Gust
km/h
Spd
kts
Gust
kts
03/11:30pm 7.8 3.9 1.4 64 2.6 NNW 11 13 6 7 1024.3 1024.3 0.0
03/11:00pm 7.8 3.5 1.0 62 2.7 N 13 17 7 9 1024.3 1024.3 0.0
03/10:30pm 7.4 3.1 1.0 64 2.6 N 13 20 7 11 1024.5 1024.5 0.0
03/10:00pm 7.4 3.1 1.0 64 2.5 NNW 13 17 7 9 1024.9 1024.9 0.0
03/09:30pm 7.8 3.2 1.4 64 2.6 NNW 15 20 8 11 1025.1 1025.1 0.0
03/09:00pm 7.1 3.7 1.6 68 2.2 NNW 9 15 5 8 1025.5 1025.5 0.0
03/08:30pm 7.1 4.0 1.2 66 2.4 NNW 7 11 4 6 1025.7 1025.7 0.0
03/08:00pm 7.9 4.5 1.7 65 2.5 NW 9 13 5 7 1025.7 1025.7 0.0
03/07:30pm 8.1 4.7 1.7 64 2.6 NW 9 11 5 6 1025.8 1025.8 0.0
03/07:00pm 8.2 4.8 1.8 64 2.6 NW 9 11 5 6 1025.8 1025.8 0.0
03/06:30pm 8.4 5.4 1.8 63 2.7 NW 7 9 4 5 1025.9 1025.9 0.0
03/06:00pm 8.6 5.1 1.5 61 2.9 NW 9 11 5 6 1025.9 1025.9 0.0
03/05:30pm 9.0 5.8 1.0 57 3.3 NW 7 11 4 6 1025.7 1025.7 0.0
03/05:00pm 9.2 5.6 0.9 56 3.4 NW 9 13 5 7 1025.7 1025.7 0.0
03/04:30pm 9.8 4.6 0.4 52 3.8 WNW 17 30 9 16 1026.1 1026.1 0.0
03/04:00pm 10.1 4.4 0.4 51 3.9 WNW 20 32 11 17 1026.4 1026.4 0.0
03/03:30pm 10.3 4.8 0.6 51 4.0 W 19 24 10 13 1026.2 1026.2 0.0
03/03:00pm 10.5 5.1 1.3 53 3.8 WNW 19 22 10 12 1026.2 1026.2 0.0
03/02:30pm 10.6 5.0 1.4 53 3.8 WNW 20 28 11 15 1026.2 1026.2 0.0
03/02:00pm 10.8 5.8 1.4 52 3.9 W 17 22 9 12 1026.4 1026.4 0.0
03/01:30pm 11.0 6.0 1.5 52 4.0 WNW 17 22 9 12 1026.6 1026.6 0.0

Other Formats:

Comma delimited format used in spreadsheet applications
http://www.bom.gov.au/fwo/IDV60801/IDV60801.94865.axf

JavaScript Object Notation format (JSON) in row-major order
http://www.bom.gov.au/fwo/IDV60801/IDV60801.94865.json